Terminal Aerodrome Forecast
Issued by NWS

Home | Current Version | Previous Version | Text Only | Print | Product List | Glossary On
Versions: 1 2 3 4 5 6 7 8 9 10 11 12 13 14 15 16 17
000
FTUS41 KBOX 131129
TAFACK
TAF
KACK 131129Z 1312/1412 28020G28KT P6SM FEW025 OVC100
     FM131800 27027G40KT P6SM BKN035
     FM132100 28028G43KT P6SM SCT060
     FM140000 27024G37KT P6SM SCT250
     FM140400 27022G33KT P6SM VCSH BKN070
     FM140900 27015G25KT 2SM -SN BR OVC020
     FM141100 30012KT 4SM -SN OVC020=

USA.gov is the U.S. government's official web portal to all federal, state and local government web resources and services.